Time;durP1;ratioP1;P1;durP2;ratioP2;P2;SDS_P1;SDS_P2;PMS_P1;PMS_P2;Temp;Humidity;BMP_temperature;BMP_pressure;BME280_temperature;BME280_humidity;BME280_pressure;Samples;Min_cycle;Max_cycle;Signal;HPM_P1;HPM_P2
2021/07/05 00:02:08;;;;;;;3.17;1.30;;;16.30;99.90;;;;;;5032460;28;20499;-50
2021/07/05 00:04:35;;;;;;;1.33;1.20;;;16.20;99.90;;;;;;5025843;28;20890;-52
2021/07/05 00:07:03;;;;;;;1.73;1.00;;;16.20;99.90;;;;;;5012960;28;20453;-51
2021/07/05 00:09:31;;;;;;;2.30;1.60;;;16.20;99.90;;;;;;5012564;28;20547;-51
2021/07/05 00:11:59;;;;;;;1.03;0.93;;;16.20;99.90;;;;;;5012251;28;20820;-50
2021/07/05 00:14:26;;;;;;;0.90;0.90;;;16.20;99.90;;;;;;5025414;28;20498;-51
2021/07/05 00:16:54;;;;;;;2.10;1.13;;;16.30;99.90;;;;;;5031701;28;20461;-51
2021/07/05 00:19:21;;;;;;;1.03;1.00;;;16.30;99.90;;;;;;5031930;28;20452;-50
2021/07/05 00:21:52;;;;;;;1.73;1.00;;;16.30;99.90;;;;;;5032126;28;20473;-51
2021/07/05 00:24:20;;;;;;;2.17;0.90;;;16.40;99.90;;;;;;5032119;28;20597;-51
2021/07/05 00:26:48;;;;;;;2.67;1.20;;;16.30;99.90;;;;;;5032332;28;20457;-51
2021/07/05 00:29:15;;;;;;;2.40;1.20;;;16.30;99.90;;;;;;5030835;28;20481;-52
2021/07/05 00:31:43;;;;;;;3.93;1.07;;;16.30;99.90;;;;;;5031402;28;20473;-51
2021/07/05 00:34:10;;;;;;;1.50;1.10;;;16.20;99.90;;;;;;5029172;28;21314;-51
2021/07/05 00:36:37;;;;;;;1.10;1.00;;;16.20;99.90;;;;;;5012245;28;20457;-50
2021/07/05 00:39:04;;;;;;;1.10;1.00;;;16.10;99.90;;;;;;5012108;28;20885;-52
2021/07/05 00:41:31;;;;;;;1.37;1.27;;;16.20;99.90;;;;;;5013623;28;20469;-51
2021/07/05 00:44:00;;;;;;;3.63;1.27;;;16.20;99.90;;;;;;5012114;28;20445;-50
2021/07/05 00:46:27;;;;;;;1.70;0.93;;;16.20;99.90;;;;;;5013121;28;20884;-50
2021/07/05 00:48:55;;;;;;;2.00;1.10;;;16.20;99.90;;;;;;5012016;28;21018;-52
2021/07/05 00:51:23;;;;;;;1.33;1.20;;;16.20;99.90;;;;;;5011786;28;20481;-52
2021/07/05 00:53:52;;;;;;;2.40;0.90;;;16.20;99.90;;;;;;5011770;28;20512;-51
2021/07/05 00:56:19;;;;;;;0.80;0.73;;;16.20;99.90;;;;;;5017170;28;20511;-51
2021/07/05 00:58:46;;;;;;;2.17;1.03;;;16.20;99.90;;;;;;5031628;28;20548;-51
2021/07/05 01:01:16;;;;;;;1.70;0.90;;;16.10;99.90;;;;;;5030903;28;20469;-51
2021/07/05 01:03:43;;;;;;;3.10;1.10;;;16.10;99.90;;;;;;5031510;28;20444;-51
2021/07/05 01:06:10;;;;;;;2.03;0.90;;;16.00;99.90;;;;;;5023117;28;20456;-51
2021/07/05 01:08:37;;;;;;;1.30;1.20;;;16.10;99.90;;;;;;5011979;28;20457;-51
2021/07/05 01:11:04;;;;;;;1.20;1.10;;;16.10;99.90;;;;;;5020425;28;21013;-52
2021/07/05 01:13:31;;;;;;;1.00;1.00;;;16.10;99.90;;;;;;5024968;28;20446;-51
2021/07/05 01:15:59;;;;;;;1.00;0.90;;;16.20;99.90;;;;;;5011838;28;21187;-50
2021/07/05 01:18:27;;;;;;;1.20;1.10;;;16.30;99.90;;;;;;5011798;28;20453;-51
2021/07/05 01:20:55;;;;;;;1.47;1.37;;;16.30;99.90;;;;;;5011857;28;20473;-51
2021/07/05 01:23:23;;;;;;;0.93;0.90;;;16.30;99.90;;;;;;5016972;28;20882;-50
2021/07/05 01:25:50;;;;;;;2.30;1.00;;;16.20;99.90;;;;;;5025350;28;20449;-51
2021/07/05 01:28:17;;;;;;;1.30;1.20;;;16.10;99.90;;;;;;5029160;28;20453;-51
2021/07/05 01:30:44;;;;;;;2.13;1.07;;;16.10;99.90;;;;;;5031258;28;20554;-50
2021/07/05 01:33:12;;;;;;;1.20;1.10;;;16.10;99.90;;;;;;5031159;28;20452;-51
2021/07/05 01:35:39;;;;;;;1.40;1.30;;;16.10;99.90;;;;;;5030938;28;20511;-51
2021/07/05 01:38:11;;;;;;;1.50;1.40;;;16.10;99.90;;;;;;5031488;28;20482;-52
2021/07/05 01:40:39;;;;;;;1.60;1.00;;;16.10;99.90;;;;;;5031873;28;20526;-51
2021/07/05 01:43:07;;;;;;;1.00;0.90;;;16.10;99.90;;;;;;5034944;28;20448;-51
2021/07/05 01:45:34;;;;;;;1.80;1.00;;;16.10;99.90;;;;;;5035063;28;20453;-51
2021/07/05 01:48:02;;;;;;;1.00;1.00;;;16.10;99.90;;;;;;5034555;28;20456;-51
2021/07/05 01:50:30;;;;;;;1.57;0.90;;;16.00;99.90;;;;;;5034898;28;20542;-51
2021/07/05 01:52:58;;;;;;;1.73;1.00;;;16.00;99.90;;;;;;5034701;28;20452;-52
2021/07/05 01:58:35;;;;;;;1.10;1.00;;;16.20;99.90;;;;;;4992141;28;20831;-50
2021/07/05 02:01:02;;;;;;;1.77;1.30;;;16.10;99.90;;;;;;5015166;28;20474;-50
2021/07/05 02:03:29;;;;;;;0.97;0.83;;;16.10;99.90;;;;;;5024445;28;20522;-51
2021/07/05 02:05:56;;;;;;;1.83;1.20;;;16.10;99.90;;;;;;5034767;28;20448;-50
2021/07/05 02:08:23;;;;;;;1.00;0.90;;;16.00;99.90;;;;;;5032472;28;20502;-51
2021/07/05 02:10:51;;;;;;;2.70;1.10;;;16.10;99.90;;;;;;5034357;28;20550;-52
2021/07/05 02:13:21;;;;;;;1.73;1.30;;;16.20;99.90;;;;;;5034534;28;20531;-51
2021/07/05 02:15:52;;;;;;;2.07;1.27;;;16.10;99.90;;;;;;5021115;28;20508;-51
2021/07/05 02:18:19;;;;;;;2.40;1.20;;;16.10;99.90;;;;;;5028160;28;20514;-51
2021/07/05 02:20:47;;;;;;;1.63;1.40;;;16.00;99.90;;;;;;5034330;28;20468;-52
2021/07/05 02:23:16;;;;;;;2.73;1.20;;;16.00;99.90;;;;;;5033502;28;20452;-50
2021/07/05 02:25:43;;;;;;;3.20;1.30;;;16.20;99.90;;;;;;5032500;28;20506;-51
2021/07/05 02:28:13;;;;;;;1.93;1.10;;;16.20;99.90;;;;;;5034524;28;20532;-50
2021/07/05 02:30:41;;;;;;;1.80;1.10;;;16.10;99.90;;;;;;5034212;28;20496;-50
2021/07/05 02:33:11;;;;;;;1.33;1.23;;;16.10;99.90;;;;;;5033766;28;20456;-50
2021/07/05 02:35:38;;;;;;;1.63;1.13;;;16.10;99.90;;;;;;5034050;28;20510;-51
2021/07/05 02:38:08;;;;;;;1.00;0.90;;;16.20;99.90;;;;;;5034167;28;20448;-52
2021/07/05 02:40:37;;;;;;;1.20;1.00;;;16.00;99.90;;;;;;5025181;28;20473;-51
2021/07/05 02:43:05;;;;;;;3.13;1.20;;;16.00;99.90;;;;;;5021050;28;20452;-51
2021/07/05 02:45:34;;;;;;;1.40;1.20;;;15.90;99.90;;;;;;5034042;28;20451;-50
2021/07/05 02:48:03;;;;;;;1.20;1.10;;;15.90;99.90;;;;;;5020107;28;20450;-51
2021/07/05 02:50:32;;;;;;;1.40;1.30;;;15.90;99.90;;;;;;5013783;28;20489;-50
2021/07/05 02:52:59;;;;;;;1.73;1.40;;;15.90;99.90;;;;;;5014839;28;20464;-50
2021/07/05 02:55:28;;;;;;;1.53;1.10;;;16.00;99.90;;;;;;5025089;28;20452;-50
2021/07/05 02:57:55;;;;;;;1.30;1.20;;;15.90;99.90;;;;;;5033431;28;20502;-50
2021/07/05 03:00:25;;;;;;;1.47;1.37;;;15.90;99.90;;;;;;5033673;28;20989;-51
2021/07/05 03:02:53;;;;;;;1.30;1.20;;;15.90;99.90;;;;;;5033408;28;20460;-51
2021/07/05 03:05:21;;;;;;;1.57;1.20;;;15.90;99.90;;;;;;5033780;28;20444;-51
2021/07/05 03:07:50;;;;;;;1.37;1.27;;;15.90;99.90;;;;;;5025464;28;20449;-51
2021/07/05 03:10:18;;;;;;;1.50;1.40;;;16.00;99.90;;;;;;5018954;28;20485;-51
2021/07/05 03:12:46;;;;;;;5.33;1.50;;;15.90;99.90;;;;;;5015391;28;20449;-50
2021/07/05 03:15:15;;;;;;;2.30;1.40;;;15.90;99.90;;;;;;5013754;28;20452;-50
2021/07/05 03:17:44;;;;;;;1.47;1.37;;;15.90;99.90;;;;;;5013707;28;20442;-50
2021/07/05 03:20:13;;;;;;;4.40;1.40;;;15.90;99.90;;;;;;5013823;28;20520;-50
2021/07/05 03:22:41;;;;;;;2.70;1.90;;;15.90;99.90;;;;;;5013475;28;20504;-51
2021/07/05 03:25:12;;;;;;;1.73;1.50;;;15.80;99.90;;;;;;5017243;28;20441;-52
2021/07/05 03:27:40;;;;;;;1.70;1.60;;;15.80;99.90;;;;;;5032072;28;20444;-52
2021/07/05 03:30:09;;;;;;;2.70;1.70;;;15.70;99.90;;;;;;5031961;28;20554;-51
2021/07/05 03:32:36;;;;;;;3.80;1.60;;;15.70;99.90;;;;;;5031864;28;20444;-51
2021/07/05 03:35:05;;;;;;;2.00;1.90;;;15.70;99.90;;;;;;5027357;28;20511;-51
2021/07/05 03:37:33;;;;;;;2.83;2.10;;;15.70;99.90;;;;;;5013429;28;20449;-51
2021/07/05 03:40:00;;;;;;;2.03;1.83;;;15.60;99.90;;;;;;5013374;28;20433;-50
2021/07/05 03:42:28;;;;;;;3.03;1.90;;;15.60;99.90;;;;;;5013233;28;20912;-51
2021/07/05 03:44:55;;;;;;;2.03;1.50;;;15.50;99.90;;;;;;5013182;28;20935;-50
2021/07/05 03:47:22;;;;;;;2.07;1.87;;;15.50;99.90;;;;;;5013137;28;20496;-50
2021/07/05 03:49:49;;;;;;;4.97;1.67;;;15.60;99.90;;;;;;5025855;28;20535;-51
2021/07/05 03:52:16;;;;;;;2.00;1.67;;;15.50;99.90;;;;;;5035822;22;20509;-52
2021/07/05 03:54:43;;;;;;;1.73;1.63;;;15.60;99.90;;;;;;5011976;28;20508;-52
2021/07/05 03:57:21;;;;;;;2.10;1.40;;;15.60;99.90;;;;;;5012278;28;20446;-52
2021/07/05 03:59:50;;;;;;;1.93;1.67;;;15.70;99.90;;;;;;5012196;28;20450;-52
2021/07/05 04:02:18;;;;;;;1.60;1.37;;;15.70;99.90;;;;;;5009225;28;20919;-52
2021/07/05 04:04:45;;;;;;;2.87;1.57;;;15.70;99.90;;;;;;5011947;28;20480;-52
2021/07/05 04:07:13;;;;;;;2.13;1.97;;;15.70;99.90;;;;;;5011831;28;20476;-52
2021/07/05 04:09:40;;;;;;;3.20;1.20;;;15.70;99.90;;;;;;5011197;28;20861;-52
2021/07/05 04:12:08;;;;;;;1.53;1.43;;;15.70;99.90;;;;;;5010414;28;20480;-52
2021/07/05 04:14:35;;;;;;;2.30;1.43;;;15.80;99.90;;;;;;5011673;28;20457;-52
2021/07/05 04:17:04;;;;;;;3.00;1.50;;;15.90;99.90;;;;;;5011984;28;20496;-52
2021/07/05 04:19:31;;;;;;;1.90;1.80;;;15.90;99.90;;;;;;5003234;28;20458;-52
2021/07/05 04:21:59;;;;;;;1.60;1.50;;;15.90;99.90;;;;;;4999112;28;20551;-52
2021/07/05 04:24:26;;;;;;;2.07;1.87;;;15.90;99.90;;;;;;5011084;28;20453;-52
2021/07/05 04:26:53;;;;;;;2.30;1.97;;;16.00;99.90;;;;;;5011121;28;20473;-52
2021/07/05 04:29:20;;;;;;;2.80;1.60;;;16.00;99.90;;;;;;5011354;28;20453;-52
2021/07/05 04:31:47;;;;;;;2.57;1.70;;;16.10;99.90;;;;;;5011419;28;21002;-52
2021/07/05 04:34:15;;;;;;;5.97;1.60;;;16.20;99.90;;;;;;5012163;28;20461;-53
2021/07/05 04:36:42;;;;;;;2.00;1.60;;;16.30;99.90;;;;;;5010210;28;20519;-52
2021/07/05 04:39:10;;;;;;;2.13;1.87;;;16.30;99.90;;;;;;5000959;28;21038;-53
2021/07/05 04:41:37;;;;;;;2.37;1.80;;;16.50;99.90;;;;;;5011584;28;20950;-52
2021/07/05 04:44:05;;;;;;;1.50;1.40;;;16.60;99.90;;;;;;5007418;28;20446;-52
2021/07/05 04:46:32;;;;;;;4.90;1.83;;;16.50;99.90;;;;;;5011441;28;20481;-51
2021/07/05 04:48:59;;;;;;;3.07;1.70;;;16.60;99.90;;;;;;5011004;28;20460;-52
2021/07/05 04:51:27;;;;;;;1.73;1.63;;;16.70;99.90;;;;;;5011080;28;20559;-52
2021/07/05 04:53:54;;;;;;;1.37;1.27;;;16.80;99.90;;;;;;5011544;28;20535;-52
2021/07/05 04:56:22;;;;;;;1.50;1.40;;;16.90;99.90;;;;;;5011413;28;20460;-52
2021/07/05 04:58:49;;;;;;;1.93;1.50;;;17.00;99.90;;;;;;5008818;28;20442;-52
2021/07/05 05:01:16;;;;;;;1.43;1.30;;;17.00;99.90;;;;;;5011313;28;20531;-52
2021/07/05 05:03:43;;;;;;;1.50;1.40;;;17.20;99.90;;;;;;5008946;28;20484;-52
2021/07/05 05:06:10;;;;;;;1.50;1.40;;;17.20;99.90;;;;;;5011507;28;20453;-52
2021/07/05 05:08:38;;;;;;;1.70;1.60;;;17.30;99.90;;;;;;5011096;28;20453;-52
2021/07/05 05:11:05;;;;;;;3.93;1.50;;;17.50;99.90;;;;;;5007685;28;20874;-52
2021/07/05 05:13:32;;;;;;;2.30;1.47;;;17.90;99.90;;;;;;5009603;28;20457;-54
2021/07/05 05:15:59;;;;;;;1.33;1.23;;;18.30;99.90;;;;;;5012471;28;20511;-51
2021/07/05 05:18:26;;;;;;;2.80;1.40;;;18.90;99.90;;;;;;5014540;28;20449;-52
2021/07/05 05:20:54;;;;;;;1.80;1.50;;;19.50;99.90;;;;;;5007444;28;20536;-52
2021/07/05 05:23:22;;;;;;;2.13;1.73;;;20.00;99.90;;;;;;5012754;28;20485;-52
2021/07/05 05:25:50;;;;;;;1.10;1.10;;;20.00;99.90;;;;;;5012588;28;20449;-52
2021/07/05 05:28:17;;;;;;;2.13;1.30;;;20.00;99.90;;;;;;5014512;28;20453;-52
2021/07/05 05:30:44;;;;;;;2.80;1.20;;;20.30;99.90;;;;;;5013512;28;20493;-51
2021/07/05 05:33:11;;;;;;;4.10;1.27;;;21.10;99.90;;;;;;5009279;28;20501;-52
2021/07/05 05:35:38;;;;;;;1.77;1.20;;;21.40;99.90;;;;;;5012514;28;20454;-52
2021/07/05 05:38:05;;;;;;;1.20;1.10;;;20.90;99.90;;;;;;5014220;28;20453;-52
2021/07/05 05:40:33;;;;;;;1.30;1.20;;;20.60;99.90;;;;;;5013380;28;20452;-52
2021/07/05 05:43:01;;;;;;;1.00;1.00;;;20.60;99.90;;;;;;5024583;28;20445;-52
2021/07/05 05:45:28;;;;;;;1.93;1.20;;;20.60;99.90;;;;;;5014637;28;20507;-52
2021/07/05 05:47:55;;;;;;;1.60;1.20;;;20.60;99.90;;;;;;5014750;28;20445;-52
2021/07/05 05:50:22;;;;;;;1.20;1.10;;;21.10;99.90;;;;;;5007299;28;20481;-51
2021/07/05 05:52:49;;;;;;;1.20;1.00;;;21.70;99.90;;;;;;5007013;28;20539;-52
2021/07/05 05:55:16;;;;;;;1.00;1.00;;;21.70;99.90;;;;;;5013639;28;20458;-52
2021/07/05 05:57:43;;;;;;;2.50;1.23;;;21.60;99.90;;;;;;5013609;28;20468;-51
2021/07/05 06:00:17;;;;;;;1.30;1.20;;;21.40;99.90;;;;;;5012376;28;21022;-52
2021/07/05 06:02:44;;;;;;;1.23;1.17;;;21.00;99.90;;;;;;5010330;28;20488;-52
2021/07/05 06:05:11;;;;;;;2.10;1.10;;;21.00;99.90;;;;;;5012154;28;20846;-52
2021/07/05 06:07:38;;;;;;;1.80;1.30;;;20.70;99.90;;;;;;5013094;28;20511;-52
2021/07/05 06:10:07;;;;;;;1.30;1.20;;;20.40;99.90;;;;;;5011347;28;20538;-52
2021/07/05 06:12:34;;;;;;;1.40;1.10;;;20.20;99.90;;;;;;5011881;28;20635;-52
2021/07/05 06:15:01;;;;;;;1.77;1.37;;;20.30;99.90;;;;;;5012789;28;20448;-52
2021/07/05 06:17:30;;;;;;;1.83;1.27;;;20.40;99.90;;;;;;5012789;28;20543;-52
2021/07/05 06:19:57;;;;;;;1.63;1.30;;;20.40;99.90;;;;;;5012932;28;20452;-52
2021/07/05 06:22:28;;;;;;;1.33;1.23;;;20.20;99.90;;;;;;5012282;28;20461;-53
2021/07/05 06:24:56;;;;;;;1.27;1.17;;;19.90;99.90;;;;;;5012712;28;20477;-53
2021/07/05 06:27:24;;;;;;;3.93;1.10;;;19.90;99.90;;;;;;5011246;28;20504;-52
2021/07/05 06:29:51;;;;;;;1.70;1.10;;;19.50;99.90;;;;;;5012613;28;20441;-52
2021/07/05 06:32:18;;;;;;;3.17;1.10;;;19.50;99.90;;;;;;5012166;28;20488;-53
2021/07/05 06:34:46;;;;;;;4.03;0.90;;;19.50;99.90;;;;;;5012453;28;20442;-52
2021/07/05 06:37:13;;;;;;;1.57;1.10;;;19.60;99.90;;;;;;5012669;28;20504;-51
2021/07/05 06:39:40;;;;;;;1.97;1.10;;;19.50;99.90;;;;;;5012617;28;20445;-52
2021/07/05 06:42:07;;;;;;;1.10;1.10;;;19.50;99.90;;;;;;5012070;28;20462;-53
2021/07/05 06:44:35;;;;;;;1.20;1.00;;;19.60;99.90;;;;;;5012352;28;20442;-53
2021/07/05 06:47:02;;;;;;;1.00;1.00;;;19.80;99.90;;;;;;5012279;28;20955;-52
2021/07/05 06:49:30;;;;;;;1.23;1.13;;;19.80;99.90;;;;;;5012286;28;21150;-53
2021/07/05 06:51:58;;;;;;;1.20;1.10;;;20.10;99.90;;;;;;5011719;28;20599;-52
2021/07/05 06:54:25;;;;;;;1.10;1.00;;;20.00;99.90;;;;;;5012240;28;20454;-52
2021/07/05 06:56:52;;;;;;;1.10;1.00;;;20.10;99.90;;;;;;5011990;28;20445;-52
2021/07/05 06:59:19;;;;;;;1.83;1.10;;;20.10;99.90;;;;;;5011934;28;20453;-52
2021/07/05 07:01:46;;;;;;;1.10;1.00;;;20.00;99.90;;;;;;5011919;28;20813;-52
2021/07/05 07:04:14;;;;;;;3.83;1.10;;;19.90;99.90;;;;;;5011654;28;20445;-52
2021/07/05 07:06:41;;;;;;;1.53;1.10;;;19.90;99.90;;;;;;5012008;28;20952;-52
2021/07/05 07:09:09;;;;;;;1.07;0.97;;;19.80;99.90;;;;;;5011822;28;20947;-52
2021/07/05 07:11:36;;;;;;;1.57;1.00;;;19.70;99.90;;;;;;5012628;28;20517;-52
2021/07/05 07:14:03;;;;;;;2.13;1.37;;;19.80;99.90;;;;;;5012609;28;20453;-52
2021/07/05 07:16:33;;;;;;;1.30;1.20;;;19.80;99.90;;;;;;5013270;28;20516;-53
2021/07/05 07:21:41;;;;;;;1.37;1.17;;;19.90;99.90;;;;;;5012740;28;20968;-52
2021/07/05 07:24:09;;;;;;;1.53;1.43;;;20.10;99.90;;;;;;5012973;28;21017;-52
2021/07/05 07:26:36;;;;;;;1.20;1.10;;;20.20;99.90;;;;;;5013143;28;20456;-52
2021/07/05 07:29:03;;;;;;;1.37;1.10;;;20.20;99.90;;;;;;5012802;28;20502;-52
2021/07/05 07:31:30;;;;;;;2.03;1.30;;;20.20;99.90;;;;;;5002206;28;20544;-52
2021/07/05 07:33:57;;;;;;;1.77;1.17;;;20.30;99.90;;;;;;4993286;28;20446;-52
2021/07/05 07:36:25;;;;;;;1.57;0.90;;;20.10;99.90;;;;;;4993410;28;20941;-52
2021/07/05 07:38:57;;;;;;;2.93;1.17;;;20.10;99.90;;;;;;4992954;28;20498;-52
2021/07/05 07:41:30;;;;;;;1.33;1.13;;;19.90;99.90;;;;;;4993125;28;20474;-52
2021/07/05 07:43:57;;;;;;;1.20;1.10;;;20.00;99.90;;;;;;4993255;28;20541;-52
2021/07/05 07:46:23;;;;;;;1.60;1.50;;;19.80;99.90;;;;;;4993178;28;20517;-52
2021/07/05 07:48:51;;;;;;;2.23;1.13;;;19.90;99.90;;;;;;4993086;28;20504;-52
2021/07/05 07:51:18;;;;;;;1.33;1.23;;;19.90;99.90;;;;;;4992805;28;20601;-52
2021/07/05 07:53:45;;;;;;;1.23;1.10;;;20.00;99.90;;;;;;4992720;28;20489;-52
2021/07/05 07:56:12;;;;;;;4.50;1.30;;;20.00;99.90;;;;;;4992910;28;21000;-52
2021/07/05 07:58:40;;;;;;;3.17;1.07;;;19.90;99.90;;;;;;5009213;28;20442;-52
2021/07/05 08:01:08;;;;;;;1.10;1.00;;;19.80;99.90;;;;;;5012502;28;20520;-52
2021/07/05 08:03:36;;;;;;;1.40;1.30;;;19.60;99.90;;;;;;5012304;28;20544;-52
2021/07/05 08:06:03;;;;;;;1.57;1.10;;;19.80;99.90;;;;;;5012493;28;20868;-52
2021/07/05 08:08:30;;;;;;;1.30;1.20;;;19.80;99.90;;;;;;5012202;28;20913;-52
2021/07/05 08:10:57;;;;;;;1.43;1.00;;;19.90;99.90;;;;;;5012457;28;20493;-52
2021/07/05 08:13:24;;;;;;;1.60;1.50;;;20.10;99.90;;;;;;5012199;28;20449;-52
2021/07/05 08:15:53;;;;;;;2.03;1.20;;;20.10;99.90;;;;;;5012322;28;20446;-52
2021/07/05 08:18:21;;;;;;;1.40;1.30;;;20.30;99.90;;;;;;5011955;28;20482;-52
2021/07/05 08:20:48;;;;;;;1.10;1.00;;;20.40;99.90;;;;;;5012238;28;20501;-52
2021/07/05 08:23:15;;;;;;;1.33;1.07;;;20.40;99.90;;;;;;5011868;28;20943;-52
2021/07/05 08:25:43;;;;;;;1.23;1.00;;;20.40;99.90;;;;;;5012166;28;20942;-52
2021/07/05 08:28:11;;;;;;;1.63;1.23;;;20.50;99.90;;;;;;5012118;28;20458;-52
2021/07/05 08:30:38;;;;;;;1.10;1.00;;;20.50;99.90;;;;;;5012147;28;20531;-52
2021/07/05 08:33:06;;;;;;;2.60;1.03;;;20.50;99.90;;;;;;5011896;28;20613;-52
2021/07/05 08:35:33;;;;;;;1.40;1.17;;;20.60;99.90;;;;;;5022551;28;20445;-52
2021/07/05 08:38:00;;;;;;;1.13;0.90;;;20.80;99.90;;;;;;5031611;28;20460;-55
2021/07/05 08:40:28;;;;;;;2.50;0.90;;;20.60;99.90;;;;;;5031191;28;20961;-54
2021/07/05 08:42:57;;;;;;;1.30;1.20;;;20.60;99.90;;;;;;5031350;28;20945;-55
2021/07/05 08:45:25;;;;;;;0.93;0.93;;;20.60;99.90;;;;;;5018683;28;20571;-55
2021/07/05 08:47:54;;;;;;;1.20;1.10;;;20.60;99.90;;;;;;5011797;28;20803;-54
2021/07/05 08:50:25;;;;;;;1.63;1.03;;;20.70;99.90;;;;;;5010358;28;20448;-54
2021/07/05 08:52:53;;;;;;;2.20;1.17;;;20.80;99.90;;;;;;5011556;28;20488;-54
2021/07/05 08:55:23;;;;;;;1.23;1.13;;;20.90;99.90;;;;;;5011393;28;20459;-54
2021/07/05 08:57:51;;;;;;;2.07;1.63;;;21.30;99.90;;;;;;5011620;28;20450;-55
2021/07/05 09:00:20;;;;;;;2.47;1.40;;;21.40;99.90;;;;;;5011637;28;20525;-54
2021/07/05 09:02:48;;;;;;;1.43;1.10;;;21.40;99.90;;;;;;5011376;28;20472;-54
2021/07/05 09:05:16;;;;;;;1.10;1.00;;;21.30;99.90;;;;;;5011463;28;20458;-55
2021/07/05 09:08:03;;;;;;;3.27;1.47;;;21.50;99.90;;;;;;5009252;28;20446;-53
2021/07/05 09:10:41;;;;;;;1.60;1.50;;;21.70;99.90;;;;;;5009201;28;20920;-53
2021/07/05 09:13:10;;;;;;;1.97;1.40;;;21.90;99.90;;;;;;5011159;28;20477;-52
2021/07/05 09:15:40;;;;;;;1.20;1.10;;;21.90;99.90;;;;;;5011491;28;20445;-52
2021/07/05 09:18:31;;;;;;;2.10;1.13;;;21.80;99.90;;;;;;5011593;28;20450;-52
2021/07/05 09:21:10;;;;;;;2.07;1.20;;;21.80;99.90;;;;;;5003178;28;20465;-52
2021/07/05 09:23:46;;;;;;;1.13;1.03;;;21.90;99.90;;;;;;5011227;28;20645;-53
2021/07/05 09:26:23;;;;;;;1.20;1.10;;;22.00;99.90;;;;;;5011789;28;20452;-54
2021/07/05 09:28:52;;;;;;;2.47;1.40;;;22.00;99.90;;;;;;5001122;28;20848;-53
2021/07/05 09:31:33;;;;;;;1.40;1.30;;;21.90;99.90;;;;;;4991808;28;20569;-53
2021/07/05 09:34:01;;;;;;;1.37;1.10;;;21.80;99.90;;;;;;5010444;28;20450;-53
2021/07/05 09:36:28;;;;;;;4.73;1.37;;;22.00;99.90;;;;;;5011426;28;20641;-53
2021/07/05 09:38:57;;;;;;;1.67;1.03;;;21.90;99.90;;;;;;5011355;28;20489;-53
2021/07/05 09:41:27;;;;;;;1.43;1.33;;;22.00;99.90;;;;;;5011298;28;20535;-54
2021/07/05 09:43:58;;;;;;;3.13;1.50;;;21.90;99.90;;;;;;5011232;28;20445;-53
2021/07/05 09:46:37;;;;;;;3.33;1.20;;;21.90;99.90;;;;;;5011312;28;20507;-52
2021/07/05 09:49:20;;;;;;;1.03;0.90;;;21.90;99.90;;;;;;5011308;28;20531;-52
2021/07/05 09:52:04;;;;;;;1.87;1.37;;;22.00;99.90;;;;;;5009999;28;20489;-52
2021/07/05 09:54:33;;;;;;;1.73;1.20;;;22.00;99.90;;;;;;5049868;22;20889;-51
2021/07/05 09:57:01;;;;;;;1.93;1.27;;;21.90;99.90;;;;;;5031725;28;20452;-51
2021/07/05 09:59:29;;;;;;;1.20;1.10;;;21.80;99.90;;;;;;5030821;28;20959;-51
2021/07/05 10:01:58;;;;;;;1.40;1.30;;;21.80;99.90;;;;;;5033997;28;20510;-51
2021/07/05 10:04:27;;;;;;;2.30;1.20;;;21.70;99.90;;;;;;5046802;28;20468;-50
2021/07/05 10:06:55;;;;;;;3.10;1.30;;;21.70;99.90;;;;;;5053094;28;20527;-52
2021/07/05 10:09:35;;;;;;;1.17;1.00;;;21.70;99.90;;;;;;5039510;28;20447;-53
2021/07/05 10:12:32;;;;;;;2.60;1.10;;;21.60;99.90;;;;;;5049367;28;20490;-49
2021/07/05 10:15:03;;;;;;;1.53;1.20;;;21.60;99.90;;;;;;4992663;28;20467;-51
2021/07/05 10:17:33;;;;;;;2.03;1.23;;;21.60;99.90;;;;;;5041776;28;20517;-50
2021/07/05 10:20:00;;;;;;;1.63;1.50;;;21.70;99.90;;;;;;5053985;28;20580;-50
2021/07/05 10:22:28;;;;;;;1.10;0.97;;;21.70;99.90;;;;;;5054033;28;20447;-49
2021/07/05 10:24:56;;;;;;;1.20;1.10;;;21.10;99.90;;;;;;5036197;28;20518;-50
2021/07/05 10:27:24;;;;;;;4.87;1.27;;;21.20;99.90;;;;;;5034094;28;20445;-50
2021/07/05 10:29:51;;;;;;;1.77;1.20;;;21.40;99.90;;;;;;5048629;28;20849;-51
2021/07/05 10:32:20;;;;;;;1.40;1.30;;;21.60;99.90;;;;;;5053765;28;20494;-51
2021/07/05 10:34:52;;;;;;;1.63;1.17;;;21.70;99.90;;;;;;5053671;28;20529;-51
2021/07/05 10:37:26;;;;;;;1.30;1.20;;;21.90;99.90;;;;;;5053732;28;20452;-52
2021/07/05 10:39:53;;;;;;;1.20;0.90;;;21.70;99.90;;;;;;5053811;28;20452;-51
2021/07/05 10:42:38;;;;;;;1.20;1.10;;;21.90;99.90;;;;;;5053611;28;20451;-51
2021/07/05 10:45:09;;;;;;;1.57;1.20;;;22.00;99.90;;;;;;5052398;28;20479;-52
2021/07/05 10:47:48;;;;;;;1.57;1.47;;;21.80;99.90;;;;;;5053724;28;20488;-52
2021/07/05 10:50:58;;;;;;;2.65;1.20;;;21.50;99.90;;;;;;5053312;28;20432;-52
2021/07/05 10:53:56;;;;;;;3.10;1.27;;;21.60;99.90;;;;;;5052888;28;20737;-50
2021/07/05 10:56:36;;;;;;;2.30;1.00;;;21.60;99.90;;;;;;5053685;28;20448;-51
2021/07/05 10:59:43;;;;;;;2.40;1.40;;;21.60;99.90;;;;;;5034723;28;20524;-50
2021/07/05 11:02:40;;;;;;;1.33;1.23;;;21.70;99.90;;;;;;5053195;28;20566;-51
2021/07/05 11:05:36;;;;;;;1.30;1.20;;;21.70;99.90;;;;;;5053391;28;20683;-50
2021/07/05 11:08:42;;;;;;;1.50;1.40;;;21.60;99.90;;;;;;5053146;28;21004;-51
2021/07/05 11:11:18;;;;;;;1.40;1.30;;;21.60;99.90;;;;;;5052922;28;20470;-51
2021/07/05 11:13:47;;;;;;;1.27;1.17;;;21.60;99.90;;;;;;5051920;28;20986;-51
2021/07/05 11:16:15;;;;;;;1.97;1.10;;;21.50;99.90;;;;;;5052318;28;20474;-51
2021/07/05 11:19:01;;;;;;;1.53;1.43;;;21.50;99.90;;;;;;5044178;28;20942;-52
2021/07/05 11:22:11;;;;;;;2.17;1.30;;;21.40;99.90;;;;;;5033298;28;20444;-52
2021/07/05 11:24:41;;;;;;;1.80;1.43;;;21.60;99.90;;;;;;5032880;28;20465;-50
2021/07/05 11:27:28;;;;;;;1.77;1.60;;;21.80;99.90;;;;;;5033293;28;20448;-50
2021/07/05 11:29:55;;;;;;;1.57;1.30;;;21.80;99.90;;;;;;5046893;28;20506;-50
2021/07/05 11:32:36;;;;;;;3.83;1.13;;;21.70;99.90;;;;;;5052593;28;20552;-51
2021/07/05 11:35:25;;;;;;;2.90;1.33;;;21.60;99.90;;;;;;5052619;28;20543;-51
2021/07/05 11:37:54;;;;;;;2.70;1.37;;;21.50;99.90;;;;;;5052892;28;20452;-51
2021/07/05 11:40:57;;;;;;;1.60;1.50;;;21.70;99.90;;;;;;5052567;28;20538;-51
2021/07/05 11:43:59;;;;;;;1.30;1.20;;;21.70;99.90;;;;;;5047133;28;20520;-50
2021/07/05 11:46:49;;;;;;;1.57;1.27;;;21.90;99.90;;;;;;5052808;28;20458;-51
2021/07/05 11:49:20;;;;;;;3.30;1.50;;;21.90;99.90;;;;;;5052561;28;20448;-52
2021/07/05 11:51:56;;;;;;;2.10;1.60;;;21.90;99.90;;;;;;5052189;28;20444;-52
2021/07/05 11:54:26;;;;;;;1.70;1.30;;;21.80;99.90;;;;;;5052218;28;20542;-50
2021/07/05 11:56:56;;;;;;;1.97;1.77;;;21.80;99.90;;;;;;5052766;28;20697;-50
2021/07/05 11:59:24;;;;;;;3.40;1.33;;;21.80;99.90;;;;;;5052646;28;20459;-51
2021/07/05 12:01:59;;;;;;;1.40;1.30;;;21.90;99.90;;;;;;5052146;28;20867;-50
2021/07/05 12:04:38;;;;;;;1.63;1.10;;;21.90;99.90;;;;;;5052394;28;20528;-50
2021/07/05 12:07:09;;;;;;;1.87;1.40;;;21.90;99.90;;;;;;5034317;28;20502;-51
2021/07/05 12:09:38;;;;;;;1.83;1.50;;;21.90;99.90;;;;;;5051124;28;20501;-51
2021/07/05 12:12:10;;;;;;;3.73;1.60;;;22.00;99.90;;;;;;5051954;28;20448;-50
2021/07/05 12:14:37;;;;;;;3.73;1.90;;;21.90;99.90;;;;;;5051875;28;20464;-51
2021/07/05 12:17:06;;;;;;;2.00;1.80;;;21.90;99.90;;;;;;5052489;28;20488;-50
2021/07/05 12:19:34;;;;;;;2.83;1.63;;;21.90;99.90;;;;;;5051584;28;20451;-51
2021/07/05 12:22:04;;;;;;;2.40;1.63;;;21.90;99.90;;;;;;5052019;28;20470;-51
2021/07/05 12:24:34;;;;;;;1.70;1.60;;;21.80;99.90;;;;;;5051657;28;20467;-51
2021/07/05 12:27:02;;;;;;;2.77;1.80;;;21.70;99.90;;;;;;5052126;28;20501;-51
2021/07/05 12:29:34;;;;;;;3.50;1.73;;;21.90;99.90;;;;;;5051933;28;20447;-51
2021/07/05 12:32:13;;;;;;;1.73;1.63;;;21.90;99.90;;;;;;5032029;28;20445;-52
2021/07/05 12:34:55;;;;;;;3.20;1.67;;;22.00;99.90;;;;;;5050259;28;20473;-52
2021/07/05 12:37:28;;;;;;;2.63;1.80;;;22.20;99.90;;;;;;5051687;28;20825;-51
2021/07/05 12:40:00;;;;;;;1.60;1.50;;;22.20;99.90;;;;;;5051532;28;20893;-51
2021/07/05 12:42:39;;;;;;;1.70;1.60;;;22.30;99.90;;;;;;5051671;28;20443;-51
2021/07/05 12:45:16;;;;;;;1.67;1.40;;;22.10;99.90;;;;;;5051526;28;20467;-50
2021/07/05 12:47:52;;;;;;;8.73;1.97;;;22.20;99.90;;;;;;5051599;28;20443;-50
2021/07/05 12:50:24;;;;;;;1.40;1.30;;;22.20;99.90;;;;;;5051335;28;20451;-52
2021/07/05 12:53:10;;;;;;;1.60;1.50;;;22.30;99.90;;;;;;5051439;28;20483;-51
2021/07/05 12:55:40;;;;;;;1.67;1.20;;;22.20;99.90;;;;;;5051342;28;20957;-51
2021/07/05 12:58:07;;;;;;;1.77;1.40;;;22.10;99.90;;;;;;5051528;28;20538;-52
2021/07/05 13:00:34;;;;;;;6.60;1.70;;;22.30;99.90;;;;;;5051188;28;20494;-51
2021/07/05 13:03:11;;;;;;;5.23;1.40;;;22.40;99.90;;;;;;5051193;28;20876;-51
2021/07/05 13:05:39;;;;;;;1.93;1.70;;;22.50;99.90;;;;;;5050820;28;20447;-51
2021/07/05 13:08:07;;;;;;;1.83;1.20;;;22.60;99.90;;;;;;5051405;28;20505;-51
2021/07/05 13:10:40;;;;;;;2.23;1.87;;;22.80;99.90;;;;;;5051419;28;20447;-50